sensor_id;sensor_type;location;lat;lon;timestamp;P1;durP1;ratioP1;P2;durP2;ratioP2
15126;SDS011;7664;52.008;4.748;2024-02-23T00:01:11;12.15;;;1.80;;
15126;SDS011;7664;52.008;4.748;2024-02-23T00:03:40;8.05;;;2.65;;
15126;SDS011;7664;52.008;4.748;2024-02-23T00:06:09;8.05;;;2.10;;
15126;SDS011;7664;52.008;4.748;2024-02-23T00:08:37;8.52;;;1.65;;
15126;SDS011;7664;52.008;4.748;2024-02-23T00:11:07;8.38;;;1.80;;
15126;SDS011;7664;52.008;4.748;2024-02-23T00:13:37;7.07;;;1.73;;
15126;SDS011;7664;52.008;4.748;2024-02-23T00:16:06;5.07;;;1.38;;
15126;SDS011;7664;52.008;4.748;2024-02-23T00:18:34;8.55;;;1.50;;
15126;SDS011;7664;52.008;4.748;2024-02-23T00:21:03;13.68;;;1.80;;
15126;SDS011;7664;52.008;4.748;2024-02-23T00:23:32;5.03;;;1.17;;
15126;SDS011;7664;52.008;4.748;2024-02-23T00:26:00;3.22;;;1.20;;
15126;SDS011;7664;52.008;4.748;2024-02-23T00:28:29;6.10;;;0.90;;
15126;SDS011;7664;52.008;4.748;2024-02-23T00:30:59;6.55;;;1.50;;
15126;SDS011;7664;52.008;4.748;2024-02-23T00:33:28;9.77;;;1.00;;
15126;SDS011;7664;52.008;4.748;2024-02-23T00:35:57;4.57;;;1.55;;
15126;SDS011;7664;52.008;4.748;2024-02-23T00:38:25;6.35;;;1.27;;
15126;SDS011;7664;52.008;4.748;2024-02-23T00:40:54;6.53;;;1.05;;
15126;SDS011;7664;52.008;4.748;2024-02-23T00:43:22;1.55;;;0.65;;
15126;SDS011;7664;52.008;4.748;2024-02-23T00:45:51;4.97;;;1.27;;
15126;SDS011;7664;52.008;4.748;2024-02-23T00:48:21;5.05;;;0.60;;
15126;SDS011;7664;52.008;4.748;2024-02-23T00:50:49;3.47;;;1.05;;
15126;SDS011;7664;52.008;4.748;2024-02-23T00:53:18;3.50;;;1.15;;
15126;SDS011;7664;52.008;4.748;2024-02-23T00:55:46;3.80;;;1.05;;
15126;SDS011;7664;52.008;4.748;2024-02-23T00:58:15;9.43;;;1.85;;
15126;SDS011;7664;52.008;4.748;2024-02-23T01:00:44;5.20;;;1.73;;
15126;SDS011;7664;52.008;4.748;2024-02-23T01:03:12;5.72;;;1.25;;
15126;SDS011;7664;52.008;4.748;2024-02-23T01:05:42;3.30;;;1.10;;
15126;SDS011;7664;52.008;4.748;2024-02-23T01:08:11;2.78;;;1.08;;
15126;SDS011;7664;52.008;4.748;2024-02-23T01:10:39;8.80;;;1.95;;
15126;SDS011;7664;52.008;4.748;2024-02-23T01:13:08;9.45;;;1.50;;
15126;SDS011;7664;52.008;4.748;2024-02-23T01:15:36;6.32;;;1.35;;
15126;SDS011;7664;52.008;4.748;2024-02-23T01:18:05;3.08;;;1.23;;
15126;SDS011;7664;52.008;4.748;2024-02-23T01:20:34;6.72;;;1.27;;
15126;SDS011;7664;52.008;4.748;2024-02-23T01:23:04;6.95;;;1.15;;
15126;SDS011;7664;52.008;4.748;2024-02-23T01:25:33;4.78;;;0.98;;
15126;SDS011;7664;52.008;4.748;2024-02-23T01:28:01;6.85;;;1.40;;
15126;SDS011;7664;52.008;4.748;2024-02-23T01:30:30;5.72;;;1.10;;
15126;SDS011;7664;52.008;4.748;2024-02-23T01:32:59;5.40;;;1.05;;
15126;SDS011;7664;52.008;4.748;2024-02-23T01:35:28;7.75;;;1.33;;
15126;SDS011;7664;52.008;4.748;2024-02-23T01:37:57;7.70;;;0.85;;
15126;SDS011;7664;52.008;4.748;2024-02-23T01:40:27;4.55;;;1.30;;
15126;SDS011;7664;52.008;4.748;2024-02-23T01:43:02;4.47;;;1.48;;
15126;SDS011;7664;52.008;4.748;2024-02-23T01:45:31;7.13;;;0.88;;
15126;SDS011;7664;52.008;4.748;2024-02-23T01:48:00;4.80;;;1.88;;
15126;SDS011;7664;52.008;4.748;2024-02-23T01:50:29;3.15;;;0.90;;
15126;SDS011;7664;52.008;4.748;2024-02-23T01:53:00;4.80;;;1.02;;
15126;SDS011;7664;52.008;4.748;2024-02-23T01:55:30;9.43;;;1.52;;
15126;SDS011;7664;52.008;4.748;2024-02-23T01:58:03;8.15;;;1.33;;
15126;SDS011;7664;52.008;4.748;2024-02-23T02:00:34;6.50;;;1.45;;
15126;SDS011;7664;52.008;4.748;2024-02-23T02:03:03;6.65;;;1.25;;
15126;SDS011;7664;52.008;4.748;2024-02-23T02:05:37;3.40;;;1.77;;
15126;SDS011;7664;52.008;4.748;2024-02-23T02:08:06;7.93;;;1.30;;
15126;SDS011;7664;52.008;4.748;2024-02-23T02:10:36;11.00;;;2.08;;
15126;SDS011;7664;52.008;4.748;2024-02-23T02:13:04;2.85;;;1.10;;
15126;SDS011;7664;52.008;4.748;2024-02-23T02:15:33;10.00;;;1.30;;
15126;SDS011;7664;52.008;4.748;2024-02-23T02:18:01;2.25;;;0.75;;
15126;SDS011;7664;52.008;4.748;2024-02-23T02:20:32;4.60;;;1.15;;
15126;SDS011;7664;52.008;4.748;2024-02-23T02:23:03;4.18;;;1.30;;
15126;SDS011;7664;52.008;4.748;2024-02-23T02:25:33;7.10;;;1.05;;
15126;SDS011;7664;52.008;4.748;2024-02-23T02:28:05;6.20;;;1.75;;
15126;SDS011;7664;52.008;4.748;2024-02-23T02:30:34;2.97;;;0.82;;
15126;SDS011;7664;52.008;4.748;2024-02-23T02:33:03;8.68;;;1.20;;
15126;SDS011;7664;52.008;4.748;2024-02-23T02:35:31;6.63;;;1.42;;
15126;SDS011;7664;52.008;4.748;2024-02-23T02:38:01;3.63;;;1.33;;
15126;SDS011;7664;52.008;4.748;2024-02-23T02:40:29;6.70;;;1.38;;
15126;SDS011;7664;52.008;4.748;2024-02-23T02:42:58;4.43;;;1.52;;
15126;SDS011;7664;52.008;4.748;2024-02-23T02:45:28;6.43;;;0.93;;
15126;SDS011;7664;52.008;4.748;2024-02-23T02:47:57;6.35;;;1.40;;
15126;SDS011;7664;52.008;4.748;2024-02-23T02:50:25;8.10;;;1.40;;
15126;SDS011;7664;52.008;4.748;2024-02-23T02:52:54;3.67;;;1.17;;
15126;SDS011;7664;52.008;4.748;2024-02-23T02:55:22;5.93;;;1.50;;
15126;SDS011;7664;52.008;4.748;2024-02-23T02:57:51;3.90;;;1.45;;
15126;SDS011;7664;52.008;4.748;2024-02-23T03:00:19;6.78;;;1.10;;
15126;SDS011;7664;52.008;4.748;2024-02-23T03:02:49;7.15;;;1.75;;
15126;SDS011;7664;52.008;4.748;2024-02-23T03:05:18;7.82;;;1.67;;
15126;SDS011;7664;52.008;4.748;2024-02-23T03:07:46;5.15;;;0.88;;
15126;SDS011;7664;52.008;4.748;2024-02-23T03:10:15;3.03;;;0.90;;
15126;SDS011;7664;52.008;4.748;2024-02-23T03:12:43;6.22;;;1.42;;
15126;SDS011;7664;52.008;4.748;2024-02-23T03:15:12;7.47;;;1.67;;
15126;SDS011;7664;52.008;4.748;2024-02-23T03:17:41;3.13;;;1.25;;
15126;SDS011;7664;52.008;4.748;2024-02-23T03:20:11;6.18;;;1.10;;
15126;SDS011;7664;52.008;4.748;2024-02-23T03:22:40;3.05;;;0.80;;
15126;SDS011;7664;52.008;4.748;2024-02-23T03:25:08;5.60;;;1.45;;
15126;SDS011;7664;52.008;4.748;2024-02-23T03:27:37;4.30;;;1.05;;
15126;SDS011;7664;52.008;4.748;2024-02-23T03:30:06;4.00;;;1.02;;
15126;SDS011;7664;52.008;4.748;2024-02-23T03:32:35;5.22;;;2.13;;
15126;SDS011;7664;52.008;4.748;2024-02-23T03:35:06;7.43;;;1.38;;
15126;SDS011;7664;52.008;4.748;2024-02-23T03:37:37;7.80;;;1.20;;
15126;SDS011;7664;52.008;4.748;2024-02-23T03:40:06;3.95;;;1.70;;
15126;SDS011;7664;52.008;4.748;2024-02-23T03:42:36;4.40;;;1.17;;
15126;SDS011;7664;52.008;4.748;2024-02-23T03:45:05;5.72;;;1.02;;
15126;SDS011;7664;52.008;4.748;2024-02-23T03:47:33;4.15;;;0.95;;
15126;SDS011;7664;52.008;4.748;2024-02-23T03:50:02;6.18;;;1.65;;
15126;SDS011;7664;52.008;4.748;2024-02-23T03:52:31;4.63;;;0.98;;
15126;SDS011;7664;52.008;4.748;2024-02-23T03:55:01;4.72;;;1.98;;
15126;SDS011;7664;52.008;4.748;2024-02-23T03:57:30;3.88;;;1.45;;
15126;SDS011;7664;52.008;4.748;2024-02-23T03:59:59;5.63;;;1.20;;
15126;SDS011;7664;52.008;4.748;2024-02-23T04:02:38;4.53;;;1.33;;
15126;SDS011;7664;52.008;4.748;2024-02-23T04:05:07;6.40;;;1.90;;
15126;SDS011;7664;52.008;4.748;2024-02-23T04:07:35;5.13;;;1.25;;
15126;SDS011;7664;52.008;4.748;2024-02-23T04:10:06;4.32;;;1.50;;
15126;SDS011;7664;52.008;4.748;2024-02-23T04:12:35;3.25;;;1.17;;
15126;SDS011;7664;52.008;4.748;2024-02-23T04:15:03;3.30;;;1.40;;
15126;SDS011;7664;52.008;4.748;2024-02-23T04:17:32;5.50;;;1.33;;
15126;SDS011;7664;52.008;4.748;2024-02-23T04:20:04;8.77;;;2.58;;
15126;SDS011;7664;52.008;4.748;2024-02-23T04:22:34;5.90;;;1.35;;
15126;SDS011;7664;52.008;4.748;2024-02-23T04:25:02;5.55;;;2.00;;
15126;SDS011;7664;52.008;4.748;2024-02-23T04:27:33;4.07;;;1.08;;
15126;SDS011;7664;52.008;4.748;2024-02-23T04:30:01;11.65;;;1.85;;
15126;SDS011;7664;52.008;4.748;2024-02-23T04:32:30;2.63;;;1.05;;
15126;SDS011;7664;52.008;4.748;2024-02-23T04:34:59;6.70;;;1.13;;
15126;SDS011;7664;52.008;4.748;2024-02-23T04:37:29;7.85;;;1.48;;
15126;SDS011;7664;52.008;4.748;2024-02-23T04:40:02;9.23;;;1.77;;
15126;SDS011;7664;52.008;4.748;2024-02-23T04:42:33;4.18;;;1.60;;
15126;SDS011;7664;52.008;4.748;2024-02-23T04:45:02;5.80;;;1.48;;
15126;SDS011;7664;52.008;4.748;2024-02-23T04:47:30;5.05;;;1.33;;
15126;SDS011;7664;52.008;4.748;2024-02-23T04:50:00;6.35;;;1.10;;
15126;SDS011;7664;52.008;4.748;2024-02-23T04:52:30;6.70;;;1.33;;
15126;SDS011;7664;52.008;4.748;2024-02-23T04:54:59;7.03;;;1.25;;
15126;SDS011;7664;52.008;4.748;2024-02-23T04:57:28;6.90;;;1.40;;
15126;SDS011;7664;52.008;4.748;2024-02-23T04:59:58;6.07;;;1.55;;
15126;SDS011;7664;52.008;4.748;2024-02-23T05:02:28;2.20;;;1.05;;
15126;SDS011;7664;52.008;4.748;2024-02-23T05:05:01;6.43;;;1.20;;
15126;SDS011;7664;52.008;4.748;2024-02-23T05:07:31;6.07;;;1.30;;
15126;SDS011;7664;52.008;4.748;2024-02-23T05:10:00;5.55;;;1.33;;
15126;SDS011;7664;52.008;4.748;2024-02-23T05:12:30;4.50;;;1.48;;
15126;SDS011;7664;52.008;4.748;2024-02-23T05:15:00;5.93;;;1.13;;
15126;SDS011;7664;52.008;4.748;2024-02-23T05:17:29;5.32;;;1.40;;
15126;SDS011;7664;52.008;4.748;2024-02-23T05:19:58;5.15;;;1.90;;
15126;SDS011;7664;52.008;4.748;2024-02-23T05:22:27;6.40;;;1.77;;
15126;SDS011;7664;52.008;4.748;2024-02-23T05:24:55;5.50;;;2.10;;
15126;SDS011;7664;52.008;4.748;2024-02-23T05:27:24;4.88;;;1.77;;
15126;SDS011;7664;52.008;4.748;2024-02-23T05:29:53;3.78;;;1.85;;
15126;SDS011;7664;52.008;4.748;2024-02-23T05:32:23;4.20;;;1.77;;
15126;SDS011;7664;52.008;4.748;2024-02-23T05:34:52;7.43;;;2.30;;
15126;SDS011;7664;52.008;4.748;2024-02-23T05:37:23;9.75;;;2.13;;
15126;SDS011;7664;52.008;4.748;2024-02-23T05:39:53;5.20;;;1.65;;
15126;SDS011;7664;52.008;4.748;2024-02-23T05:42:22;7.22;;;1.80;;
15126;SDS011;7664;52.008;4.748;2024-02-23T05:44:50;2.97;;;1.40;;
15126;SDS011;7664;52.008;4.748;2024-02-23T05:47:19;3.38;;;1.52;;
15126;SDS011;7664;52.008;4.748;2024-02-23T05:49:49;3.00;;;1.40;;
15126;SDS011;7664;52.008;4.748;2024-02-23T05:52:18;2.65;;;1.60;;
15126;SDS011;7664;52.008;4.748;2024-02-23T05:54:46;2.05;;;1.35;;
15126;SDS011;7664;52.008;4.748;2024-02-23T05:57:18;6.40;;;1.95;;
15126;SDS011;7664;52.008;4.748;2024-02-23T05:59:46;5.95;;;1.20;;
15126;SDS011;7664;52.008;4.748;2024-02-23T06:02:15;5.97;;;1.63;;
15126;SDS011;7664;52.008;4.748;2024-02-23T06:04:44;2.08;;;1.10;;
15126;SDS011;7664;52.008;4.748;2024-02-23T06:07:14;5.05;;;1.80;;
15126;SDS011;7664;52.008;4.748;2024-02-23T06:09:43;4.97;;;1.60;;
15126;SDS011;7664;52.008;4.748;2024-02-23T06:12:11;5.85;;;1.63;;
15126;SDS011;7664;52.008;4.748;2024-02-23T06:14:40;5.75;;;1.33;;
15126;SDS011;7664;52.008;4.748;2024-02-23T06:17:08;5.18;;;1.70;;
15126;SDS011;7664;52.008;4.748;2024-02-23T06:19:37;9.38;;;2.15;;
15126;SDS011;7664;52.008;4.748;2024-02-23T06:22:05;2.80;;;1.33;;
15126;SDS011;7664;52.008;4.748;2024-02-23T06:24:37;4.63;;;1.58;;
15126;SDS011;7664;52.008;4.748;2024-02-23T06:27:06;1.95;;;1.50;;
15126;SDS011;7664;52.008;4.748;2024-02-23T06:29:35;4.20;;;2.30;;
15126;SDS011;7664;52.008;4.748;2024-02-23T06:32:04;11.27;;;2.67;;
15126;SDS011;7664;52.008;4.748;2024-02-23T06:34:32;5.40;;;2.15;;
15126;SDS011;7664;52.008;4.748;2024-02-23T06:37:01;7.18;;;2.35;;
15126;SDS011;7664;52.008;4.748;2024-02-23T06:39:30;5.45;;;2.08;;
15126;SDS011;7664;52.008;4.748;2024-02-23T06:42:03;4.20;;;2.13;;
15126;SDS011;7664;52.008;4.748;2024-02-23T06:44:32;5.47;;;2.17;;
15126;SDS011;7664;52.008;4.748;2024-02-23T06:47:00;3.15;;;1.70;;
15126;SDS011;7664;52.008;4.748;2024-02-23T06:49:29;7.10;;;2.05;;
15126;SDS011;7664;52.008;4.748;2024-02-23T06:51:58;6.65;;;2.10;;
15126;SDS011;7664;52.008;4.748;2024-02-23T06:54:27;3.00;;;1.88;;
15126;SDS011;7664;52.008;4.748;2024-02-23T06:56:55;4.80;;;2.22;;
15126;SDS011;7664;52.008;4.748;2024-02-23T06:59:25;7.22;;;2.30;;
15126;SDS011;7664;52.008;4.748;2024-02-23T07:01:55;4.30;;;1.92;;
15126;SDS011;7664;52.008;4.748;2024-02-23T07:04:23;6.70;;;1.85;;
15126;SDS011;7664;52.008;4.748;2024-02-23T07:06:53;4.63;;;1.58;;
15126;SDS011;7664;52.008;4.748;2024-02-23T07:09:22;4.00;;;1.17;;
15126;SDS011;7664;52.008;4.748;2024-02-23T07:11:50;8.27;;;2.15;;
15126;SDS011;7664;52.008;4.748;2024-02-23T07:14:19;2.65;;;1.20;;
15126;SDS011;7664;52.008;4.748;2024-02-23T07:16:50;5.50;;;1.30;;
15126;SDS011;7664;52.008;4.748;2024-02-23T07:19:18;4.03;;;1.58;;
15126;SDS011;7664;52.008;4.748;2024-02-23T07:21:47;6.95;;;2.03;;
15126;SDS011;7664;52.008;4.748;2024-02-23T07:24:16;5.40;;;1.75;;
15126;SDS011;7664;52.008;4.748;2024-02-23T07:26:45;5.43;;;1.38;;
15126;SDS011;7664;52.008;4.748;2024-02-23T07:29:14;6.80;;;1.85;;
15126;SDS011;7664;52.008;4.748;2024-02-23T07:31:44;2.65;;;1.15;;
15126;SDS011;7664;52.008;4.748;2024-02-23T07:34:14;5.38;;;1.52;;
15126;SDS011;7664;52.008;4.748;2024-02-23T07:36:43;6.07;;;1.60;;
15126;SDS011;7664;52.008;4.748;2024-02-23T07:39:12;5.63;;;1.63;;
15126;SDS011;7664;52.008;4.748;2024-02-23T07:41:40;2.15;;;1.38;;
15126;SDS011;7664;52.008;4.748;2024-02-23T07:44:09;9.20;;;1.77;;
15126;SDS011;7664;52.008;4.748;2024-02-23T07:46:38;4.85;;;1.00;;
15126;SDS011;7664;52.008;4.748;2024-02-23T07:49:08;7.45;;;2.00;;
15126;SDS011;7664;52.008;4.748;2024-02-23T07:51:38;5.03;;;1.20;;
15126;SDS011;7664;52.008;4.748;2024-02-23T07:54:07;5.13;;;1.55;;
15126;SDS011;7664;52.008;4.748;2024-02-23T07:56:35;7.10;;;1.77;;
15126;SDS011;7664;52.008;4.748;2024-02-23T07:59:04;8.82;;;1.80;;
15126;SDS011;7664;52.008;4.748;2024-02-23T08:01:33;7.03;;;1.58;;
15126;SDS011;7664;52.008;4.748;2024-02-23T08:04:01;5.88;;;2.05;;
15126;SDS011;7664;52.008;4.748;2024-02-23T08:06:30;6.75;;;1.73;;
15126;SDS011;7664;52.008;4.748;2024-02-23T08:09:00;3.85;;;1.40;;
15126;SDS011;7664;52.008;4.748;2024-02-23T08:11:29;8.25;;;2.10;;
15126;SDS011;7664;52.008;4.748;2024-02-23T08:14:02;7.95;;;1.90;;
15126;SDS011;7664;52.008;4.748;2024-02-23T08:16:31;2.45;;;1.85;;
15126;SDS011;7664;52.008;4.748;2024-02-23T08:19:00;2.80;;;1.70;;
15126;SDS011;7664;52.008;4.748;2024-02-23T08:21:29;5.97;;;2.15;;
15126;SDS011;7664;52.008;4.748;2024-02-23T08:23:58;8.25;;;1.98;;
15126;SDS011;7664;52.008;4.748;2024-02-23T08:26:32;8.13;;;1.75;;
15126;SDS011;7664;52.008;4.748;2024-02-23T08:29:01;6.03;;;1.67;;
15126;SDS011;7664;52.008;4.748;2024-02-23T08:31:30;6.28;;;1.90;;
15126;SDS011;7664;52.008;4.748;2024-02-23T08:33:59;7.63;;;2.17;;
15126;SDS011;7664;52.008;4.748;2024-02-23T08:36:28;6.32;;;1.60;;
15126;SDS011;7664;52.008;4.748;2024-02-23T08:38:57;3.10;;;1.65;;
15126;SDS011;7664;52.008;4.748;2024-02-23T08:41:25;3.28;;;1.25;;
15126;SDS011;7664;52.008;4.748;2024-02-23T08:43:55;4.05;;;1.42;;
15126;SDS011;7664;52.008;4.748;2024-02-23T08:46:24;4.38;;;2.47;;
15126;SDS011;7664;52.008;4.748;2024-02-23T08:48:52;5.03;;;1.77;;
15126;SDS011;7664;52.008;4.748;2024-02-23T08:51:21;6.03;;;1.95;;
15126;SDS011;7664;52.008;4.748;2024-02-23T08:53:50;6.43;;;1.60;;
15126;SDS011;7664;52.008;4.748;2024-02-23T08:56:18;4.68;;;1.42;;
15126;SDS011;7664;52.008;4.748;2024-02-23T08:58:47;3.00;;;1.10;;
15126;SDS011;7664;52.008;4.748;2024-02-23T09:01:17;3.25;;;1.55;;
15126;SDS011;7664;52.008;4.748;2024-02-23T09:03:46;4.75;;;1.65;;
15126;SDS011;7664;52.008;4.748;2024-02-23T09:06:14;3.72;;;1.67;;
15126;SDS011;7664;52.008;4.748;2024-02-23T09:08:43;7.03;;;1.55;;
15126;SDS011;7664;52.008;4.748;2024-02-23T09:11:12;2.97;;;1.75;;
15126;SDS011;7664;52.008;4.748;2024-02-23T09:13:42;9.07;;;1.58;;
15126;SDS011;7664;52.008;4.748;2024-02-23T09:16:10;8.93;;;2.47;;
15126;SDS011;7664;52.008;4.748;2024-02-23T09:18:40;2.15;;;1.42;;
15126;SDS011;7664;52.008;4.748;2024-02-23T09:21:09;7.28;;;1.48;;
15126;SDS011;7664;52.008;4.748;2024-02-23T09:23:37;9.43;;;2.72;;
15126;SDS011;7664;52.008;4.748;2024-02-23T09:26:08;5.20;;;1.73;;
15126;SDS011;7664;52.008;4.748;2024-02-23T09:28:38;3.20;;;1.30;;
15126;SDS011;7664;52.008;4.748;2024-02-23T09:31:08;4.18;;;1.60;;
15126;SDS011;7664;52.008;4.748;2024-02-23T09:33:37;5.25;;;1.63;;
15126;SDS011;7664;52.008;4.748;2024-02-23T09:36:07;7.47;;;1.77;;
15126;SDS011;7664;52.008;4.748;2024-02-23T09:38:36;4.97;;;1.10;;
15126;SDS011;7664;52.008;4.748;2024-02-23T09:41:07;3.38;;;1.27;;
15126;SDS011;7664;52.008;4.748;2024-02-23T09:43:40;4.78;;;1.33;;
15126;SDS011;7664;52.008;4.748;2024-02-23T09:46:10;5.95;;;1.63;;
15126;SDS011;7664;52.008;4.748;2024-02-23T09:48:39;6.22;;;1.60;;
15126;SDS011;7664;52.008;4.748;2024-02-23T09:51:10;4.55;;;1.50;;
15126;SDS011;7664;52.008;4.748;2024-02-23T09:53:39;5.03;;;1.25;;
15126;SDS011;7664;52.008;4.748;2024-02-23T09:56:07;5.38;;;1.40;;
15126;SDS011;7664;52.008;4.748;2024-02-23T09:58:36;4.93;;;1.35;;
15126;SDS011;7664;52.008;4.748;2024-02-23T10:01:05;4.43;;;1.33;;
15126;SDS011;7664;52.008;4.748;2024-02-23T10:03:33;4.18;;;1.80;;
15126;SDS011;7664;52.008;4.748;2024-02-23T10:06:04;8.52;;;1.13;;
15126;SDS011;7664;52.008;4.748;2024-02-23T10:08:34;4.00;;;1.27;;
15126;SDS011;7664;52.008;4.748;2024-02-23T10:11:02;4.22;;;1.45;;
15126;SDS011;7664;52.008;4.748;2024-02-23T10:13:32;12.82;;;2.05;;
15126;SDS011;7664;52.008;4.748;2024-02-23T10:16:05;6.78;;;2.25;;
15126;SDS011;7664;52.008;4.748;2024-02-23T10:18:41;5.93;;;1.77;;
15126;SDS011;7664;52.008;4.748;2024-02-23T10:21:10;7.97;;;1.98;;
15126;SDS011;7664;52.008;4.748;2024-02-23T10:23:39;5.50;;;1.98;;
15126;SDS011;7664;52.008;4.748;2024-02-23T10:26:08;3.33;;;1.40;;
15126;SDS011;7664;52.008;4.748;2024-02-23T10:28:37;4.75;;;1.17;;
15126;SDS011;7664;52.008;4.748;2024-02-23T10:31:05;5.13;;;1.35;;
15126;SDS011;7664;52.008;4.748;2024-02-23T10:33:39;4.60;;;1.45;;
15126;SDS011;7664;52.008;4.748;2024-02-23T10:36:08;3.95;;;1.55;;
15126;SDS011;7664;52.008;4.748;2024-02-23T10:38:37;4.65;;;1.80;;
15126;SDS011;7664;52.008;4.748;2024-02-23T10:41:08;4.78;;;2.03;;
15126;SDS011;7664;52.008;4.748;2024-02-23T10:43:41;5.78;;;2.00;;
15126;SDS011;7664;52.008;4.748;2024-02-23T10:46:13;3.20;;;2.25;;
15126;SDS011;7664;52.008;4.748;2024-02-23T10:48:42;4.07;;;1.45;;
15126;SDS011;7664;52.008;4.748;2024-02-23T10:51:13;4.13;;;1.23;;
15126;SDS011;7664;52.008;4.748;2024-02-23T10:53:46;7.97;;;1.65;;
15126;SDS011;7664;52.008;4.748;2024-02-23T10:56:18;2.45;;;1.30;;
15126;SDS011;7664;52.008;4.748;2024-02-23T10:58:48;5.05;;;1.52;;
15126;SDS011;7664;52.008;4.748;2024-02-23T11:01:17;3.60;;;1.10;;
15126;SDS011;7664;52.008;4.748;2024-02-23T11:03:47;3.08;;;1.35;;
15126;SDS011;7664;52.008;4.748;2024-02-23T11:06:17;4.97;;;1.42;;
15126;SDS011;7664;52.008;4.748;2024-02-23T11:08:48;4.30;;;1.75;;
15126;SDS011;7664;52.008;4.748;2024-02-23T11:11:19;2.42;;;1.42;;
15126;SDS011;7664;52.008;4.748;2024-02-23T11:13:47;7.97;;;2.35;;
15126;SDS011;7664;52.008;4.748;2024-02-23T11:16:21;3.45;;;1.30;;
15126;SDS011;7664;52.008;4.748;2024-02-23T11:18:50;4.85;;;1.40;;
15126;SDS011;7664;52.008;4.748;2024-02-23T11:21:33;3.42;;;1.17;;
15126;SDS011;7664;52.008;4.748;2024-02-23T11:24:03;2.90;;;1.38;;
15126;SDS011;7664;52.008;4.748;2024-02-23T11:26:37;4.20;;;1.05;;
15126;SDS011;7664;52.008;4.748;2024-02-23T11:29:09;5.32;;;1.08;;
15126;SDS011;7664;52.008;4.748;2024-02-23T11:31:43;4.50;;;0.93;;
15126;SDS011;7664;52.008;4.748;2024-02-23T11:34:12;3.90;;;0.98;;
15126;SDS011;7664;52.008;4.748;2024-02-23T11:36:41;3.67;;;1.05;;
15126;SDS011;7664;52.008;4.748;2024-02-23T11:39:09;3.25;;;0.90;;
15126;SDS011;7664;52.008;4.748;2024-02-23T11:41:41;4.65;;;1.42;;
15126;SDS011;7664;52.008;4.748;2024-02-23T11:44:09;2.28;;;0.80;;
15126;SDS011;7664;52.008;4.748;2024-02-23T11:46:40;2.92;;;1.02;;
15126;SDS011;7664;52.008;4.748;2024-02-23T11:49:08;2.50;;;0.80;;
15126;SDS011;7664;52.008;4.748;2024-02-23T11:51:37;2.85;;;0.70;;
15126;SDS011;7664;52.008;4.748;2024-02-23T11:54:06;7.38;;;1.25;;
15126;SDS011;7664;52.008;4.748;2024-02-23T11:56:36;2.80;;;0.98;;
15126;SDS011;7664;52.008;4.748;2024-02-23T11:59:06;7.25;;;1.02;;
15126;SDS011;7664;52.008;4.748;2024-02-23T12:01:35;3.88;;;1.00;;
15126;SDS011;7664;52.008;4.748;2024-02-23T12:04:04;4.25;;;1.00;;
15126;SDS011;7664;52.008;4.748;2024-02-23T12:06:33;1.77;;;0.80;;
15126;SDS011;7664;52.008;4.748;2024-02-23T12:09:01;3.58;;;1.77;;
15126;SDS011;7664;52.008;4.748;2024-02-23T12:11:31;3.90;;;0.80;;
15126;SDS011;7664;52.008;4.748;2024-02-23T12:14:00;6.15;;;1.00;;
15126;SDS011;7664;52.008;4.748;2024-02-23T12:16:35;4.40;;;1.20;;
15126;SDS011;7664;52.008;4.748;2024-02-23T12:19:04;4.25;;;0.98;;
15126;SDS011;7664;52.008;4.748;2024-02-23T12:21:33;2.08;;;0.90;;
15126;SDS011;7664;52.008;4.748;2024-02-23T12:24:03;3.65;;;0.82;;
15126;SDS011;7664;52.008;4.748;2024-02-23T12:26:34;1.98;;;0.88;;
15126;SDS011;7664;52.008;4.748;2024-02-23T12:29:03;3.55;;;0.82;;
15126;SDS011;7664;52.008;4.748;2024-02-23T12:31:32;5.78;;;1.00;;
15126;SDS011;7664;52.008;4.748;2024-02-23T12:34:02;5.97;;;1.20;;
15126;SDS011;7664;52.008;4.748;2024-02-23T12:36:31;2.67;;;1.17;;
15126;SDS011;7664;52.008;4.748;2024-02-23T12:39:02;7.18;;;1.17;;
15126;SDS011;7664;52.008;4.748;2024-02-23T12:41:30;2.22;;;1.15;;
15126;SDS011;7664;52.008;4.748;2024-02-23T12:43:59;3.90;;;0.98;;
15126;SDS011;7664;52.008;4.748;2024-02-23T12:46:28;3.42;;;1.40;;
15126;SDS011;7664;52.008;4.748;2024-02-23T12:48:57;3.03;;;1.30;;
15126;SDS011;7664;52.008;4.748;2024-02-23T12:51:26;2.83;;;0.98;;
15126;SDS011;7664;52.008;4.748;2024-02-23T12:53:55;3.58;;;1.00;;
15126;SDS011;7664;52.008;4.748;2024-02-23T12:56:24;2.05;;;0.93;;
15126;SDS011;7664;52.008;4.748;2024-02-23T12:58:52;5.88;;;1.38;;
15126;SDS011;7664;52.008;4.748;2024-02-23T13:01:21;4.40;;;0.93;;
15126;SDS011;7664;52.008;4.748;2024-02-23T13:03:50;3.92;;;1.05;;
15126;SDS011;7664;52.008;4.748;2024-02-23T13:06:18;3.03;;;1.10;;
15126;SDS011;7664;52.008;4.748;2024-02-23T13:08:48;1.88;;;0.80;;
15126;SDS011;7664;52.008;4.748;2024-02-23T13:11:17;2.25;;;1.00;;
15126;SDS011;7664;52.008;4.748;2024-02-23T13:13:45;2.75;;;0.85;;
15126;SDS011;7664;52.008;4.748;2024-02-23T13:16:14;4.85;;;1.02;;
15126;SDS011;7664;52.008;4.748;2024-02-23T13:18:43;3.55;;;0.70;;
15126;SDS011;7664;52.008;4.748;2024-02-23T13:21:13;3.25;;;0.77;;
15126;SDS011;7664;52.008;4.748;2024-02-23T13:23:42;2.17;;;0.75;;
15126;SDS011;7664;52.008;4.748;2024-02-23T13:26:12;2.25;;;0.80;;
15126;SDS011;7664;52.008;4.748;2024-02-23T13:28:42;0.70;;;0.50;;
15126;SDS011;7664;52.008;4.748;2024-02-23T13:31:11;3.53;;;0.52;;
15126;SDS011;7664;52.008;4.748;2024-02-23T13:33:41;0.65;;;0.38;;
15126;SDS011;7664;52.008;4.748;2024-02-23T13:36:10;0.50;;;0.50;;
15126;SDS011;7664;52.008;4.748;2024-02-23T13:38:39;2.63;;;0.70;;
15126;SDS011;7664;52.008;4.748;2024-02-23T13:41:08;0.93;;;0.47;;
15126;SDS011;7664;52.008;4.748;2024-02-23T13:43:39;0.40;;;0.32;;
15126;SDS011;7664;52.008;4.748;2024-02-23T13:46:08;2.35;;;0.60;;
15126;SDS011;7664;52.008;4.748;2024-02-23T13:48:37;2.45;;;0.50;;
15126;SDS011;7664;52.008;4.748;2024-02-23T13:51:05;0.60;;;0.32;;
15126;SDS011;7664;52.008;4.748;2024-02-23T13:53:34;1.75;;;0.65;;
15126;SDS011;7664;52.008;4.748;2024-02-23T13:56:04;1.48;;;0.70;;
15126;SDS011;7664;52.008;4.748;2024-02-23T13:58:33;0.88;;;0.38;;
15126;SDS011;7664;52.008;4.748;2024-02-23T14:01:03;0.80;;;0.50;;
15126;SDS011;7664;52.008;4.748;2024-02-23T14:03:31;0.73;;;0.60;;
15126;SDS011;7664;52.008;4.748;2024-02-23T14:06:00;1.13;;;0.38;;
15126;SDS011;7664;52.008;4.748;2024-02-23T14:08:29;0.60;;;0.45;;
15126;SDS011;7664;52.008;4.748;2024-02-23T14:11:00;0.35;;;0.28;;
15126;SDS011;7664;52.008;4.748;2024-02-23T14:13:29;1.48;;;0.30;;
15126;SDS011;7664;52.008;4.748;2024-02-23T14:15:58;1.27;;;0.35;;
15126;SDS011;7664;52.008;4.748;2024-02-23T14:18:31;1.63;;;0.35;;
15126;SDS011;7664;52.008;4.748;2024-02-23T14:21:04;0.38;;;0.38;;
15126;SDS011;7664;52.008;4.748;2024-02-23T14:23:32;0.93;;;0.68;;
15126;SDS011;7664;52.008;4.748;2024-02-23T14:26:01;1.48;;;0.40;;
15126;SDS011;7664;52.008;4.748;2024-02-23T14:28:30;2.35;;;0.40;;
15126;SDS011;7664;52.008;4.748;2024-02-23T14:30:58;2.35;;;0.40;;
15126;SDS011;7664;52.008;4.748;2024-02-23T14:33:27;2.47;;;0.73;;
15126;SDS011;7664;52.008;4.748;2024-02-23T14:35:56;2.05;;;0.57;;
15126;SDS011;7664;52.008;4.748;2024-02-23T14:38:25;2.10;;;0.50;;
15126;SDS011;7664;52.008;4.748;2024-02-23T14:40:54;2.75;;;0.70;;
15126;SDS011;7664;52.008;4.748;2024-02-23T14:43:22;1.17;;;0.55;;
15126;SDS011;7664;52.008;4.748;2024-02-23T14:45:51;1.05;;;0.50;;
15126;SDS011;7664;52.008;4.748;2024-02-23T14:48:20;4.55;;;0.80;;
15126;SDS011;7664;52.008;4.748;2024-02-23T14:50:48;1.20;;;0.73;;
15126;SDS011;7664;52.008;4.748;2024-02-23T14:53:18;1.60;;;0.57;;
15126;SDS011;7664;52.008;4.748;2024-02-23T14:55:47;1.95;;;0.50;;
15126;SDS011;7664;52.008;4.748;2024-02-23T14:58:15;1.10;;;0.50;;
15126;SDS011;7664;52.008;4.748;2024-02-23T15:00:44;0.35;;;0.30;;
15126;SDS011;7664;52.008;4.748;2024-02-23T15:03:13;1.35;;;0.57;;
15126;SDS011;7664;52.008;4.748;2024-02-23T15:05:42;2.50;;;0.50;;
15126;SDS011;7664;52.008;4.748;2024-02-23T15:08:10;1.70;;;0.68;;
15126;SDS011;7664;52.008;4.748;2024-02-23T15:10:40;3.08;;;0.77;;
15126;SDS011;7664;52.008;4.748;2024-02-23T15:13:09;0.80;;;0.40;;